Time;durP1;ratioP1;P1;durP2;ratioP2;P2;SDS_P1;SDS_P2;PMS_P1;PMS_P2;Temp;Humidity;BMP_temperature;BMP_pressure;BME280_temperature;BME280_humidity;BME280_pressure;Samples;Min_cycle;Max_cycle;Signal;HPM_P1;HPM_P2
2022/06/26 00:01:54;;;;;;;4.67;4.17;;;;;;;20.62;66.58;98376.34;1689267;84;25687;-58
2022/06/26 00:04:20;;;;;;;4.58;4.17;;;;;;;20.61;66.79;98380.91;1689212;85;28457;-59
2022/06/26 00:06:47;;;;;;;5.33;4.72;;;;;;;20.57;67.04;98383.67;1689088;85;25840;-58
2022/06/26 00:09:13;;;;;;;6.03;4.70;;;;;;;20.57;66.75;98383.67;1689050;85;25432;-58
2022/06/26 00:11:39;;;;;;;4.97;4.47;;;;;;;20.57;66.51;98385.06;1688911;85;25526;-58
2022/06/26 00:14:05;;;;;;;5.42;4.87;;;;;;;20.56;66.89;98384.25;1689441;85;25685;-59
2022/06/26 00:16:32;;;;;;;6.85;4.50;;;;;;;20.55;66.80;98386.03;1689204;85;27461;-58
2022/06/26 00:18:58;;;;;;;7.42;4.72;;;;;;;20.52;66.84;98389.62;1689100;84;25599;-59
2022/06/26 00:21:24;;;;;;;7.28;5.17;;;;;;;20.50;66.68;98391.98;1689233;85;25452;-58
2022/06/26 00:23:50;;;;;;;7.50;4.80;;;;;;;20.50;66.62;98393.37;1689388;85;26351;-59
2022/06/26 00:26:15;;;;;;;6.87;4.87;;;;;;;20.47;66.66;98395.53;1689387;85;25690;-58
2022/06/26 00:28:41;;;;;;;7.50;4.72;;;;;;;20.42;66.81;98390.55;1689124;85;28340;-59
2022/06/26 00:31:07;;;;;;;6.95;5.20;;;;;;;20.40;66.51;98389.31;1689097;84;25705;-58
2022/06/26 00:33:33;;;;;;;6.08;4.92;;;;;;;20.39;66.60;98396.08;1689429;85;25446;-59
2022/06/26 00:35:59;;;;;;;6.90;4.62;;;;;;;20.38;66.72;98393.09;1689204;85;25731;-58
2022/06/26 00:38:25;;;;;;;6.65;5.08;;;;;;;20.33;66.97;98392.87;1689216;85;25635;-59
2022/06/26 00:40:51;;;;;;;8.38;5.37;;;;;;;20.29;66.59;98395.61;1688855;85;29670;-58
2022/06/26 00:43:17;;;;;;;9.20;4.83;;;;;;;20.27;66.77;98396.58;1689233;85;25666;-59
2022/06/26 00:45:43;;;;;;;5.67;4.62;;;;;;;20.25;67.15;98396.19;1688744;85;25697;-59
2022/06/26 00:48:09;;;;;;;6.33;5.03;;;;;;;20.22;67.24;98394.17;1689185;85;25747;-59
2022/06/26 00:50:36;;;;;;;7.12;4.30;;;;;;;20.20;66.87;98397.14;1689117;85;25453;-58
2022/06/26 00:53:02;;;;;;;5.78;4.47;;;;;;;20.14;67.29;98400.85;1689096;84;28313;-58
2022/06/26 00:55:28;;;;;;;5.97;4.92;;;;;;;20.12;67.15;98402.63;1663351;85;26360;-59
2022/06/26 00:57:55;;;;;;;5.62;4.50;;;;;;;20.10;67.15;98400.03;1689217;85;25656;-58
2022/06/26 01:00:21;;;;;;;7.97;4.90;;;;;;;20.08;67.32;98403.78;1688971;85;25788;-58
2022/06/26 01:02:47;;;;;;;6.65;4.42;;;;;;;20.03;67.54;98396.59;1689077;85;25486;-58
2022/06/26 01:05:13;;;;;;;5.72;4.37;;;;;;;19.95;67.76;98402.67;1689255;85;28223;-57
2022/06/26 01:07:42;;;;;;;4.95;4.45;;;;;;;19.93;67.72;98405.03;1688829;85;25715;-58
2022/06/26 01:10:09;;;;;;;5.25;4.55;;;;;;;19.89;67.70;98402.20;1688963;85;25485;-58
2022/06/26 01:12:35;;;;;;;7.00;4.75;;;;;;;19.93;67.65;98400.28;1689174;85;26464;-58
2022/06/26 01:15:04;;;;;;;5.80;4.62;;;;;;;19.91;67.66;98398.46;1689372;85;25472;-57
2022/06/26 01:17:30;;;;;;;4.72;4.22;;;;;;;19.91;67.81;98399.05;1689117;85;29124;-57
2022/06/26 01:19:57;;;;;;;6.70;4.33;;;;;;;19.91;67.88;98399.85;1688991;85;26038;-57
2022/06/26 01:22:29;;;;;;;4.70;4.15;;;;;;;19.93;67.72;98401.67;1689283;85;25622;-57
2022/06/26 01:24:55;;;;;;;5.35;4.45;;;;;;;19.97;67.75;98404.47;1689052;85;25858;-57
2022/06/26 01:27:21;;;;;;;4.60;4.15;;;;;;;19.99;67.65;98403.50;1689030;85;25622;-57
2022/06/26 01:29:47;;;;;;;4.70;4.30;;;;;;;19.97;67.62;98403.08;1689103;84;27559;-57
2022/06/26 01:32:13;;;;;;;4.45;3.98;;;;;;;19.91;67.80;98404.02;1689022;85;26073;-57
2022/06/26 01:34:40;;;;;;;5.97;4.42;;;;;;;19.84;68.02;98414.28;1689062;84;25778;-58
2022/06/26 01:37:06;;;;;;;6.12;4.50;;;;;;;19.74;68.46;98410.20;1689131;85;26706;-57
2022/06/26 01:39:32;;;;;;;5.05;4.58;;;;;;;19.59;68.94;98412.03;1689095;85;25478;-58
2022/06/26 01:41:58;;;;;;;5.87;4.45;;;;;;;19.46;68.87;98411.52;1689026;85;27370;-58
2022/06/26 01:44:24;;;;;;;6.28;5.10;;;;;;;19.47;68.77;98408.36;1689095;85;25686;-57
2022/06/26 01:46:50;;;;;;;6.67;5.20;;;;;;;19.45;68.84;98415.48;1689317;85;25611;-58
2022/06/26 01:49:16;;;;;;;5.80;5.25;;;;;;;19.43;68.76;98412.48;1689154;84;25712;-58
2022/06/26 01:51:42;;;;;;;6.60;5.65;;;;;;;19.41;69.18;98416.83;1689387;85;25511;-58
2022/06/26 01:54:09;;;;;;;6.42;5.05;;;;;;;19.29;69.11;98412.33;1688990;85;27585;-58
2022/06/26 01:56:34;;;;;;;6.22;5.20;;;;;;;19.24;69.55;98414.05;1689089;85;25523;-58
2022/06/26 01:59:00;;;;;;;7.00;5.17;;;;;;;19.18;69.37;98417.17;1689090;85;25665;-58
2022/06/26 02:01:27;;;;;;;6.72;5.40;;;;;;;19.11;69.83;98414.28;1689129;85;25802;-58
2022/06/26 02:03:53;;;;;;;8.33;5.20;;;;;;;19.01;70.17;98424.64;1689267;85;25482;-58
2022/06/26 02:06:18;;;;;;;6.03;5.42;;;;;;;18.89;70.32;98432.05;1689097;85;28221;-58
2022/06/26 02:08:44;;;;;;;9.25;5.85;;;;;;;18.76;71.53;98434.81;1688830;85;25692;-58
2022/06/26 02:13:55;;;;;;;8.08;5.92;;;;;;;18.69;71.02;98429.37;1687035;85;25672;-58
2022/06/26 02:16:30;;;;;;;8.90;6.20;;;;;;;18.73;70.97;98430.02;1687443;85;25646;-58
2022/06/26 02:18:58;;;;;;;7.25;5.87;;;;;;;18.76;70.95;98424.52;1687220;85;28272;-58
2022/06/26 02:21:29;;;;;;;7.70;5.95;;;;;;;18.79;71.00;98426.55;1687193;85;25673;-58
2022/06/26 02:23:56;;;;;;;;;;;;;;;18.85;70.90;98424.23;1689625;85;25610;-58
2022/06/26 02:26:23;;;;;;;7.83;6.08;;;;;;;18.86;71.28;98434.19;1687253;84;25697;-58
2022/06/26 02:28:50;;;;;;;8.03;6.15;;;;;;;18.75;71.44;98441.55;1687863;84;25590;-58
2022/06/26 02:31:16;;;;;;;7.37;6.05;;;;;;;18.62;71.98;98436.81;1687557;84;28691;-58
2022/06/26 02:33:42;;;;;;;7.45;6.60;;;;;;;18.51;72.01;98435.27;1687447;84;26033;-59
2022/06/26 02:36:09;;;;;;;7.78;6.35;;;;;;;18.45;72.29;98436.75;1687825;84;25486;-58
2022/06/26 02:38:37;;;;;;;8.03;6.50;;;;;;;18.38;72.24;98429.92;1687443;84;26487;-58
2022/06/26 02:41:04;;;;;;;7.65;6.60;;;;;;;18.41;72.37;98431.95;1687388;85;25432;-59
2022/06/26 02:43:31;;;;;;;7.87;6.35;;;;;;;18.45;72.29;98438.92;1687442;84;28213;-58
2022/06/26 02:45:57;;;;;;;8.40;6.25;;;;;;;18.52;72.11;98443.22;1687387;85;25703;-59
2022/06/26 02:48:23;;;;;;;7.22;6.10;;;;;;;18.57;71.94;98444.88;1687382;84;25513;-58
2022/06/26 02:50:49;;;;;;;8.68;6.75;;;;;;;18.63;71.92;98448.94;1687504;84;26629;-59
2022/06/26 02:53:17;;;;;;;14.18;8.90;;;;;;;18.73;71.63;98452.22;1687169;85;25441;-58
2022/06/26 02:55:43;;;;;;;7.65;6.35;;;;;;;18.78;71.65;98450.52;1687525;85;28451;-58
2022/06/26 02:58:10;;;;;;;7.55;6.10;;;;;;;18.77;71.56;98454.48;1687208;85;25761;-58
2022/06/26 03:00:36;;;;;;;10.05;7.15;;;;;;;18.68;71.82;98453.33;1687424;84;25522;-58
2022/06/26 03:03:03;;;;;;;6.92;5.95;;;;;;;18.67;72.10;98453.94;1687619;84;25702;-58
2022/06/26 03:05:31;;;;;;;7.75;6.45;;;;;;;18.70;71.85;98455.16;1687190;84;25420;-58
2022/06/26 03:07:57;;;;;;;8.73;7.25;;;;;;;18.73;71.86;98458.58;1687193;85;27370;-58
2022/06/26 03:10:24;;;;;;;7.78;6.37;;;;;;;18.78;71.80;98461.05;1674553;84;27196;-58
2022/06/26 03:12:51;;;;;;;7.85;7.05;;;;;;;18.87;71.82;98465.50;1665963;86;25734;-58
2022/06/26 03:15:19;;;;;;;8.40;6.95;;;;;;;18.94;71.61;98459.47;1665866;85;26580;-59
2022/06/26 03:17:46;;;;;;;8.18;6.85;;;;;;;19.03;71.50;98461.96;1666060;86;25580;-59
2022/06/26 03:20:16;;;;;;;7.60;6.80;;;;;;;19.09;71.58;98460.28;1665831;86;27457;-59
2022/06/26 03:22:43;;;;;;;7.80;7.00;;;;;;;19.10;71.60;98459.91;1666051;86;26112;-60
2022/06/26 03:25:10;;;;;;;7.35;6.65;;;;;;;19.13;71.43;98459.16;1665900;85;25655;-60
2022/06/26 03:27:37;;;;;;;8.73;6.97;;;;;;;19.21;71.32;98467.58;1665834;86;26772;-60
2022/06/26 03:30:06;;;;;;;9.30;6.75;;;;;;;19.27;71.42;98466.07;1665978;86;25490;-60
2022/06/26 03:32:32;;;;;;;8.45;6.78;;;;;;;19.32;71.45;98469.91;1665962;86;27376;-60
2022/06/26 03:34:58;;;;;;;8.85;6.97;;;;;;;19.38;71.45;98471.19;1665799;86;25962;-60
2022/06/26 03:37:23;;;;;;;8.68;6.30;;;;;;;19.49;71.25;98474.67;1666021;85;25706;-60
2022/06/26 03:39:50;;;;;;;9.25;6.45;;;;;;;19.61;70.90;98478.59;1666036;85;25931;-60
2022/06/26 03:42:16;;;;;;;7.40;6.37;;;;;;;19.78;70.88;98468.83;1665951;86;25490;-60
2022/06/26 03:44:42;;;;;;;9.55;6.53;;;;;;;19.92;70.49;98473.74;1665943;86;28289;-60
2022/06/26 03:47:09;;;;;;;7.65;5.90;;;;;;;20.08;70.12;98472.73;1665726;85;25692;-60
2022/06/26 03:49:35;;;;;;;6.72;6.00;;;;;;;20.18;69.92;98481.77;1665954;86;25501;-60
2022/06/26 03:52:02;;;;;;;8.90;6.60;;;;;;;20.26;69.76;98478.45;1665999;85;25715;-60
2022/06/26 03:54:30;;;;;;;6.90;6.20;;;;;;;20.36;69.61;98478.36;1666033;86;25616;-60
2022/06/26 03:56:56;;;;;;;8.90;6.35;;;;;;;20.50;69.34;98478.27;1665702;85;25822;-60
2022/06/26 03:59:22;;;;;;;7.67;6.17;;;;;;;20.58;69.08;98475.72;1665944;85;25635;-60
2022/06/26 04:01:47;;;;;;;7.15;6.00;;;;;;;20.68;68.76;98479.78;1665925;86;25707;-60
2022/06/26 04:04:13;;;;;;;11.68;6.58;;;;;;;20.75;68.66;98473.48;1665935;85;25737;-60
2022/06/26 04:06:40;;;;;;;6.70;6.10;;;;;;;20.82;68.31;98470.73;1665818;86;25643;-60
2022/06/26 04:09:06;;;;;;;7.80;5.97;;;;;;;20.92;68.13;98473.39;1665920;85;27325;-60
2022/06/26 04:11:32;;;;;;;7.08;6.03;;;;;;;;;;1686695;84;25450;-60
2022/06/26 04:13:58;;;;;;;6.85;5.85;;;;;;;21.14;67.58;98477.11;1689341;85;25634;-60
2022/06/26 04:16:24;;;;;;;6.60;5.50;;;;;;;21.21;67.04;98473.55;1689332;84;25763;-60
2022/06/26 04:18:50;;;;;;;6.33;5.53;;;;;;;21.29;66.74;98472.98;1689189;84;25598;-60
2022/06/26 04:21:16;;;;;;;6.47;5.40;;;;;;;21.33;66.60;98472.43;1688876;85;27467;-60
2022/06/26 04:23:42;;;;;;;7.05;6.12;;;;;;;21.49;66.52;98476.27;1689205;84;25669;-60
2022/06/26 04:26:08;;;;;;;8.18;6.37;;;;;;;21.70;66.57;98480.30;1689343;85;25453;-60
2022/06/26 04:28:34;;;;;;;8.95;6.72;;;;;;;21.80;65.79;98485.75;1688965;85;25823;-60
2022/06/26 04:31:00;;;;;;;9.68;7.00;;;;;;;21.78;65.84;98486.14;1689207;85;25374;-59
2022/06/26 04:33:26;;;;;;;7.58;6.83;;;;;;;21.82;65.99;98491.74;1689378;85;27584;-59
2022/06/26 04:35:52;;;;;;;10.03;6.97;;;;;;;21.93;65.58;98494.53;1689141;85;25923;-59
2022/06/26 04:38:17;;;;;;;8.85;7.05;;;;;;;22.10;65.58;98494.37;1689098;84;25682;-59
2022/06/26 04:40:43;;;;;;;8.13;6.42;;;;;;;22.27;64.95;98494.78;1688820;85;25730;-60
2022/06/26 04:43:09;;;;;;;7.50;6.45;;;;;;;22.41;64.69;98496.79;1687228;84;25602;-60
2022/06/26 04:45:35;;;;;;;8.63;6.25;;;;;;;22.55;64.68;98499.59;1663715;86;27602;-60
2022/06/26 04:48:01;;;;;;;7.95;5.90;;;;;;;22.63;63.78;98499.03;1653033;85;26317;-60
2022/06/26 04:50:27;;;;;;;7.30;6.10;;;;;;;22.72;63.46;98500.02;1660252;85;25831;-60
2022/06/26 04:52:53;;;;;;;6.85;6.10;;;;;;;22.80;63.10;98504.38;1661560;85;26581;-61
2022/06/26 04:55:19;;;;;;;7.60;5.80;;;;;;;22.90;62.72;98505.57;1664052;85;25504;-60
2022/06/26 04:57:45;;;;;;;7.00;5.95;;;;;;;23.04;62.21;98510.93;1656179;85;28279;-60
2022/06/26 05:00:14;;;;;;;8.78;6.25;;;;;;;23.06;61.17;98509.94;1666858;85;25681;-60
2022/06/26 05:02:40;;;;;;;8.10;6.03;;;;;;;23.06;61.48;98508.54;1664829;85;25725;-60
2022/06/26 05:05:07;;;;;;;8.78;6.05;;;;;;;23.01;61.88;98512.54;1660191;85;25773;-59
2022/06/26 05:07:34;;;;;;;6.75;5.42;;;;;;;23.01;62.26;98515.92;1664874;85;25577;-60
2022/06/26 05:10:00;;;;;;;6.25;5.47;;;;;;;22.94;62.23;98506.94;1662098;85;27616;-60
2022/06/26 05:12:27;;;;;;;7.67;5.78;;;;;;;22.90;62.36;98508.36;1621787;87;26235;-60
2022/06/26 05:14:53;;;;;;;7.87;5.90;;;;;;;22.94;62.45;98510.55;1627463;87;25787;-60
2022/06/26 05:17:19;;;;;;;7.25;5.47;;;;;;;23.05;62.42;98511.92;1630853;87;25760;-60
2022/06/26 05:19:45;;;;;;;8.05;5.10;;;;;;;23.24;62.12;98511.88;1633549;87;25460;-60
2022/06/26 05:22:11;;;;;;;6.45;5.10;;;;;;;23.39;61.79;98516.25;1629747;87;27630;-59
2022/06/26 05:24:37;;;;;;;6.00;5.40;;;;;;;23.45;60.99;98513.05;1622918;87;25645;-59
2022/06/26 05:27:04;;;;;;;7.53;5.20;;;;;;;23.58;60.80;98514.19;1617219;88;26358;-60
2022/06/26 05:29:30;;;;;;;6.10;5.53;;;;;;;23.71;60.69;98517.94;1617573;88;25883;-60
2022/06/26 05:31:57;;;;;;;6.17;5.25;;;;;;;23.81;59.98;98520.66;1617823;88;25482;-59
2022/06/26 05:34:26;;;;;;;6.37;5.62;;;;;;;23.86;60.02;98521.45;1617714;88;27384;-59
2022/06/26 05:37:10;;;;;;;6.43;5.50;;;;;;;23.88;59.38;98518.43;1617636;88;25486;-59
2022/06/26 05:39:36;;;;;;;6.67;5.35;;;;;;;23.93;59.70;98526.41;1616795;88;25751;-59
2022/06/26 05:42:03;;;;;;;7.10;6.20;;;;;;;23.96;59.05;98519.78;1617730;88;25873;-59
2022/06/26 05:44:29;;;;;;;6.78;5.80;;;;;;;23.92;59.42;98530.39;1625216;87;25719;-60
2022/06/26 05:46:55;;;;;;;6.78;6.00;;;;;;;23.90;59.14;98529.22;1637557;87;27408;-60
2022/06/26 05:49:21;;;;;;;7.83;6.03;;;;;;;23.90;59.33;98530.03;1644652;86;25702;-59
2022/06/26 05:51:47;;;;;;;5.53;4.90;;;;;;;23.96;59.33;98535.98;1620687;88;25520;-60
2022/06/26 05:54:13;;;;;;;6.22;5.62;;;;;;;24.04;59.12;98529.13;1632931;87;26505;-60
2022/06/26 05:56:39;;;;;;;6.22;5.62;;;;;;;24.30;58.97;98536.78;1635383;87;25530;-59
2022/06/26 05:59:06;;;;;;;6.35;5.72;;;;;;;24.35;58.68;98536.95;1633056;87;28463;-60
2022/06/26 06:01:32;;;;;;;6.12;5.53;;;;;;;24.49;59.34;98538.08;1632875;87;25779;-60
2022/06/26 06:03:58;;;;;;;6.60;5.90;;;;;;;24.63;58.42;98537.14;1633151;87;25461;-59
2022/06/26 06:06:24;;;;;;;6.53;5.58;;;;;;;24.67;57.88;98544.94;1634461;87;25762;-60
2022/06/26 06:08:50;;;;;;;5.28;4.78;;;;;;;24.67;58.00;98538.71;1634099;87;25806;-58
2022/06/26 06:11:17;;;;;;;7.20;5.20;;;;;;;24.66;57.78;98539.13;1639510;87;28617;-60
2022/06/26 06:13:43;;;;;;;8.38;4.97;;;;;;;24.70;57.60;98544.11;1644860;87;25712;-61
2022/06/26 06:16:10;;;;;;;5.30;4.80;;;;;;;24.84;57.88;98548.77;1627314;87;25763;-61
2022/06/26 06:18:36;;;;;;;5.92;5.08;;;;;;;24.91;56.56;98547.95;1640171;87;25722;-61
2022/06/26 06:21:02;;;;;;;6.00;4.90;;;;;;;24.85;57.52;98551.78;1640477;87;25449;-61
2022/06/26 06:23:30;;;;;;;4.97;4.55;;;;;;;25.08;57.17;98547.59;1640127;87;27384;-60
2022/06/26 06:25:56;;;;;;;6.10;4.85;;;;;;;25.35;56.68;98551.11;1651890;86;25866;-61
2022/06/26 06:28:22;;;;;;;5.50;5.00;;;;;;;25.57;55.95;98553.67;1652053;86;25691;-61
2022/06/26 06:30:48;;;;;;;5.28;4.78;;;;;;;25.64;55.86;98552.20;1651640;86;25724;-61
2022/06/26 06:33:14;;;;;;;6.58;4.95;;;;;;;25.80;54.85;98556.44;1651990;86;25513;-61
2022/06/26 06:35:41;;;;;;;5.15;4.65;;;;;;;25.80;54.23;98562.85;1651745;86;27514;-61
2022/06/26 06:38:08;;;;;;;5.20;4.70;;;;;;;25.92;55.29;98560.09;1651484;86;25691;-61
2022/06/26 06:40:35;;;;;;;5.72;4.70;;;;;;;26.19;53.67;98561.31;1652042;86;25775;-61
2022/06/26 06:43:01;;;;;;;5.15;4.65;;;;;;;26.30;53.22;98557.78;1651664;86;26138;-60
2022/06/26 06:45:28;;;;;;;6.53;4.62;;;;;;;26.40;52.95;98564.44;1651924;86;25538;-60
2022/06/26 06:47:55;;;;;;;4.53;4.12;;;;;;;26.63;53.41;98559.30;1651714;86;28425;-61
2022/06/26 06:50:22;;;;;;;6.00;4.58;;;;;;;26.87;52.20;98567.13;1651681;86;25702;-60
2022/06/26 06:52:49;;;;;;;4.95;4.37;;;;;;;26.95;51.70;98566.39;1651851;86;25430;-60
2022/06/26 06:55:15;;;;;;;4.80;4.28;;;;;;;27.10;52.13;98569.77;1651702;86;25681;-60
2022/06/26 06:57:41;;;;;;;5.55;4.22;;;;;;;27.02;51.55;98568.30;1651929;86;25474;-60
2022/06/26 07:00:10;;;;;;;5.15;4.40;;;;;;;27.11;50.77;98569.94;1651562;86;27363;-61
2022/06/26 07:02:40;;;;;;;4.65;3.85;;;;;;;27.31;50.84;98567.16;1651877;86;25619;-60
2022/06/26 07:05:09;;;;;;;5.00;3.90;;;;;;;27.33;49.53;98566.73;1651743;86;25648;-59
2022/06/26 07:07:37;;;;;;;5.28;4.10;;;;;;;27.37;50.65;98569.49;1651930;86;25672;-61
2022/06/26 07:10:05;;;;;;;4.45;3.92;;;;;;;27.73;50.21;98568.80;1652138;86;25433;-60
2022/06/26 07:12:31;;;;;;;6.67;4.95;;;;;;;28.10;50.27;98566.62;1675540;84;28148;-61
2022/06/26 07:14:58;;;;;;;9.40;4.67;;;;;;;28.39;49.46;98561.77;1678185;85;25687;-60
2022/06/26 07:17:25;;;;;;;4.95;4.22;;;;;;;28.45;48.20;98571.89;1699372;84;25659;-60
2022/06/26 07:19:51;;;;;;;4.22;3.83;;;;;;;28.55;48.02;98564.59;1699056;84;25775;-60
2022/06/26 07:22:18;;;;;;;4.58;4.12;;;;;;;28.56;48.21;98562.58;1699375;84;25487;-61
2022/06/26 07:24:44;;;;;;;5.22;4.05;;;;;;;28.53;47.56;98566.27;1699340;84;27622;-61
2022/06/26 07:27:11;;;;;;;4.45;4.05;;;;;;;28.72;47.19;98564.59;1699461;84;25487;-60
2022/06/26 07:29:38;;;;;;;4.40;4.03;;;;;;;28.88;47.63;98570.84;1699209;84;25716;-58
2022/06/26 07:32:06;;;;;;;4.75;4.17;;;;;;;29.27;45.79;98571.06;1699335;84;25965;-58
2022/06/26 07:34:33;;;;;;;4.70;4.08;;;;;;;29.27;46.35;98564.64;1699562;84;25424;-57
2022/06/26 07:37:00;;;;;;;4.72;4.20;;;;;;;29.39;46.60;98569.52;1699239;84;27789;-59
2022/06/26 07:39:26;;;;;;;4.33;3.92;;;;;;;29.49;45.01;98578.95;1699089;84;25706;-58
2022/06/26 07:41:53;;;;;;;4.85;4.15;;;;;;;29.50;45.13;98572.05;1699407;84;25612;-60
2022/06/26 07:44:20;;;;;;;4.83;3.62;;;;;;;29.58;44.76;98575.50;1699291;84;25905;-57
2022/06/26 07:46:47;;;;;;;4.85;4.35;;;;;;;29.81;43.62;98572.22;1699097;84;25766;-58
2022/06/26 07:49:14;;;;;;;6.17;3.95;;;;;;;29.86;42.94;98575.92;1699358;84;27327;-58
2022/06/26 07:51:41;;;;;;;4.40;3.98;;;;;;;30.05;43.31;98571.30;1699264;84;25447;-58
2022/06/26 07:54:09;;;;;;;4.70;4.00;;;;;;;30.41;42.96;98570.05;1699382;84;25454;-59
2022/06/26 07:56:37;;;;;;;4.20;3.80;;;;;;;30.75;43.00;98576.23;1688199;84;26620;-58
2022/06/26 07:59:04;;;;;;;4.30;3.90;;;;;;;30.81;41.84;98578.69;1687555;84;25436;-59
2022/06/26 08:01:30;;;;;;;4.47;4.08;;;;;;;30.63;41.17;98572.19;1699239;84;27353;-58
2022/06/26 08:03:57;;;;;;;5.60;3.80;;;;;;;30.30;41.64;98579.66;1699158;84;25605;-58
2022/06/26 08:06:24;;;;;;;4.58;3.80;;;;;;;30.26;42.67;98581.02;1699360;84;25614;-57
2022/06/26 08:08:51;;;;;;;4.30;3.90;;;;;;;30.67;41.72;98576.48;1699294;84;25890;-58
2022/06/26 08:11:18;;;;;;;5.50;4.00;;;;;;;31.08;41.04;98577.37;1694814;84;25416;-58
2022/06/26 08:13:45;;;;;;;4.40;4.05;;;;;;;31.40;40.49;98572.64;1671513;85;27438;-57
2022/06/26 08:16:12;;;;;;;4.35;4.00;;;;;;;31.78;40.19;98579.34;1689607;84;25511;-58
2022/06/26 08:18:38;;;;;;;4.55;4.15;;;;;;;31.80;38.06;98577.47;1689726;84;25662;-57
2022/06/26 08:23:50;;;;;;;4.35;3.95;;;;;;;32.29;38.78;98574.61;1689622;84;25609;-58
2022/06/26 08:26:18;;;;;;;4.08;3.67;;;;;;;32.28;37.44;98582.16;1671542;85;28037;-57
2022/06/26 08:28:45;;;;;;;4.25;3.85;;;;;;;32.46;36.85;98582.09;1689818;84;25722;-56
2022/06/26 08:31:12;;;;;;;4.20;3.80;;;;;;;32.57;37.13;98573.15;1671452;85;25669;-56
2022/06/26 08:33:39;;;;;;;4.10;3.70;;;;;;;32.58;37.37;98573.33;1689768;84;25676;-58
2022/06/26 08:36:06;;;;;;;5.60;3.83;;;;;;;32.60;36.58;98580.72;1671782;85;25719;-57
2022/06/26 08:38:32;;;;;;;4.67;4.22;;;;;;;32.54;37.09;98583.39;1689616;84;27636;-58
2022/06/26 08:41:00;;;;;;;3.83;3.52;;;;;;;32.73;36.78;98586.28;1689875;84;25522;-58
2022/06/26 08:43:28;;;;;;;5.37;3.90;;;;;;;33.11;37.27;98589.38;1689908;84;25716;-57
2022/06/26 08:45:56;;;;;;;4.75;3.98;;;;;;;33.34;35.65;98587.80;1689689;84;25882;-59
2022/06/26 08:48:27;;;;;;;4.12;3.80;;;;;;;33.30;35.64;98583.72;1689675;84;25618;-59
2022/06/26 08:50:54;;;;;;;5.00;4.08;;;;;;;33.28;34.61;98573.45;1671506;85;27843;-59
2022/06/26 08:53:22;;;;;;;4.00;3.67;;;;;;;33.09;35.91;98576.28;1667875;84;25774;-58
2022/06/26 08:55:49;;;;;;;4.40;3.90;;;;;;;33.39;35.52;98575.83;1671300;85;25471;-58
2022/06/26 08:58:15;;;;;;;4.15;3.75;;;;;;;33.33;34.85;98578.52;1687670;84;26443;-58
2022/06/26 09:00:46;;;;;;;7.95;3.83;;;;;;;33.24;34.97;98575.02;1689736;84;25725;-59
2022/06/26 09:03:10;;;;;;;5.53;4.25;;;;;;;33.33;35.47;98579.94;1689221;84;26987;-58
2022/06/26 09:05:37;;;;;;;4.20;3.80;;;;;;;33.59;36.15;98575.34;1670747;85;25673;-58
2022/06/26 09:08:05;;;;;;;5.22;3.62;;;;;;;33.94;34.80;98576.23;1689588;84;25633;-59
2022/06/26 09:10:37;;;;;;;4.17;3.37;;;;;;;34.13;32.98;98577.78;1671588;85;25700;-56
2022/06/26 09:13:00;;;;;;;4.30;3.80;;;;;;;34.00;31.63;98575.13;1694452;84;25515;-60
2022/06/26 09:15:27;;;;;;;3.92;3.45;;;;;;;34.14;33.68;98579.34;1693562;84;27409;-60
2022/06/26 09:18:04;;;;;;;5.20;3.60;;;;;;;34.70;31.43;98581.18;1668934;86;25523;-59
2022/06/26 09:20:33;;;;;;;4.10;3.80;;;;;;;34.96;32.25;98574.20;1695268;84;25639;-58
2022/06/26 09:23:02;;;;;;;3.58;3.27;;;;;;;35.25;32.17;98568.48;1669031;86;25704;-59
2022/06/26 09:25:45;;;;;;;4.35;3.02;;;;;;;34.99;30.43;98571.81;1696139;84;41497;-58
2022/06/26 09:28:18;;;;;;;3.20;2.98;;;;;;;34.44;29.90;98581.60;1668983;86;27541;-58
2022/06/26 09:30:56;;;;;;;4.03;2.80;;;;;;;34.10;30.22;98573.02;1696101;84;25680;-59
2022/06/26 09:33:29;;;;;;;4.78;3.10;;;;;;;34.32;29.92;98578.34;1668971;86;25484;-59
2022/06/26 09:35:58;;;;;;;3.85;3.00;;;;;;;34.46;29.25;98583.34;1696302;84;26572;-58
2022/06/26 09:38:32;;;;;;;3.67;2.98;;;;;;;34.75;29.20;98573.41;1669199;86;25423;-58
2022/06/26 09:41:09;;;;;;;3.37;2.95;;;;;;;35.02;28.60;98574.49;1695524;84;28083;-60
2022/06/26 09:43:42;;;;;;;3.62;2.72;;;;;;;35.31;28.72;98577.92;1668737;86;25661;-58
2022/06/26 09:46:12;;;;;;;5.25;2.75;;;;;;;35.63;27.77;98572.57;1696599;84;25460;-60
2022/06/26 09:48:40;;;;;;;2.87;2.47;;;;;;;35.65;25.96;98578.58;1668930;86;25730;-58
2022/06/26 09:51:13;;;;;;;2.90;2.47;;;;;;;35.37;25.92;98583.09;1696157;84;25662;-59
2022/06/26 09:53:40;;;;;;;2.77;2.55;;;;;;;35.25;25.36;98577.03;1668625;86;27493;-60
2022/06/26 09:56:07;;;;;;;3.98;2.98;;;;;;;34.92;26.50;98570.14;1696349;84;25753;-60
2022/06/26 09:58:34;;;;;;;4.20;2.90;;;;;;;34.74;26.76;98572.47;1668681;86;25629;-59
2022/06/26 10:06:35;;;;;;;3.85;2.92;;;;;;;35.19;26.00;98570.45;1695994;84;25610;-59
2022/06/26 10:09:06;;;;;;;2.83;2.62;;;;;;;35.20;26.64;98569.17;1668827;86;25589;-59
2022/06/26 10:11:36;;;;;;;3.10;2.80;;;;;;;35.53;26.12;98568.25;1695086;84;25431;-58
2022/06/26 10:14:19;;;;;;;5.15;2.83;;;;;;;35.60;26.75;98580.67;1668693;86;25773;-57
2022/06/26 10:17:20;;;;;;;3.85;2.80;;;;;;;35.93;26.48;98575.31;1696291;84;25699;-57
2022/06/26 10:20:00;;;;;;;4.33;2.83;;;;;;;36.28;26.20;98577.47;1693578;84;27480;-57
2022/06/26 10:22:39;;;;;;;4.75;2.90;;;;;;;36.79;25.77;98574.59;1668874;86;25685;-57
2022/06/26 10:25:07;;;;;;;3.40;2.58;;;;;;;37.14;24.80;98568.03;1696166;84;25753;-58
2022/06/26 10:27:37;;;;;;;2.98;2.40;;;;;;;37.46;24.94;98569.42;1668919;86;25756;-58
2022/06/26 10:30:15;;;;;;;7.05;2.60;;;;;;;37.80;23.32;98579.80;1696310;84;25662;-58
2022/06/26 10:32:44;;;;;;;3.87;2.83;;;;;;;36.93;23.69;98572.17;1669056;86;28193;-57
2022/06/26 10:35:14;;;;;;;5.83;2.30;;;;;;;37.12;24.15;98574.08;1696441;84;25698;-57
2022/06/26 10:37:47;;;;;;;;;;;;;;;36.94;23.23;98570.25;1671437;86;25504;-56
2022/06/26 10:43:09;;;;;;;4.58;2.10;;;;;;;36.58;23.11;98571.67;1674359;84;25661;-57
2022/06/26 10:45:40;;;;;;;5.53;2.40;;;;;;;36.59;22.72;98566.77;1696215;84;29509;-59
2022/06/26 10:48:24;;;;;;;3.00;2.70;;;;;;;35.77;23.47;98572.47;1696298;84;25725;-58
2022/06/26 10:51:04;;;;;;;3.75;2.52;;;;;;;35.40;24.58;98572.16;1696178;84;25661;-59
2022/06/26 10:53:39;;;;;;;2.75;2.33;;;;;;;35.95;24.27;98567.86;1695362;84;25771;-58
2022/06/26 10:56:08;;;;;;;5.17;2.40;;;;;;;36.64;23.96;98573.97;1696585;84;25662;-59
2022/06/26 10:58:41;;;;;;;3.37;2.60;;;;;;;37.03;23.84;98570.73;1696265;84;27447;-59
2022/06/26 11:01:11;;;;;;;2.60;2.40;;;;;;;37.65;23.50;98565.60;1696032;84;26014;-59
2022/06/26 11:03:39;;;;;;;2.40;2.20;;;;;;;38.15;24.67;98575.14;1696553;84;25645;-59
2022/06/26 11:06:12;;;;;;;2.95;2.35;;;;;;;38.22;21.76;98571.08;1696506;84;26414;-59
2022/06/26 11:08:48;;;;;;;3.25;2.55;;;;;;;38.46;22.10;98575.65;1696472;84;25436;-59
2022/06/26 11:11:30;;;;;;;2.27;2.05;;;;;;;38.59;22.20;98573.13;1696281;84;27525;-59
2022/06/26 11:14:02;;;;;;;3.00;2.27;;;;;;;38.22;22.10;98568.98;1698414;84;25448;-59
2022/06/26 11:16:41;;;;;;;2.58;2.37;;;;;;;38.45;21.89;98573.42;1699286;84;25486;-59
2022/06/26 11:19:25;;;;;;;2.72;2.30;;;;;;;38.35;21.84;98569.20;1699301;84;26424;-59
2022/06/26 11:22:10;;;;;;;2.42;2.22;;;;;;;38.56;22.20;98573.38;1699106;84;25657;-59
2022/06/26 11:24:49;;;;;;;2.60;2.40;;;;;;;38.73;22.09;98570.62;1699031;84;27828;-59
2022/06/26 11:27:16;;;;;;;2.90;2.33;;;;;;;39.13;22.60;98564.45;1699737;84;25790;-59
2022/06/26 11:29:46;;;;;;;5.12;2.47;;;;;;;39.50;21.09;98562.73;1699151;84;25599;-59
2022/06/26 11:32:13;;;;;;;2.52;2.33;;;;;;;39.57;21.76;98552.84;1698975;84;25956;-59
2022/06/26 11:34:54;;;;;;;3.27;2.25;;;;;;;39.85;22.01;98559.91;1699289;84;25710;-59
2022/06/26 11:37:36;;;;;;;3.00;2.20;;;;;;;40.02;20.09;98558.48;1699072;84;27548;-60
2022/06/26 11:40:14;;;;;;;1.92;1.70;;;;;;;39.94;20.54;98560.33;1699067;84;25480;-59
2022/06/26 11:42:41;;;;;;;1.60;1.50;;;;;;;40.14;20.01;98558.63;1699369;84;25637;-59
2022/06/26 11:45:09;;;;;;;2.05;1.80;;;;;;;40.07;18.77;98558.38;1698906;84;26318;-59
2022/06/26 11:47:38;;;;;;;2.20;2.00;;;;;;;39.61;18.78;98558.34;1699157;84;25435;-59
2022/06/26 11:50:07;;;;;;;3.42;2.00;;;;;;;38.81;20.47;98561.69;1699208;84;27453;-59
2022/06/26 11:52:33;;;;;;;;;;;;;;;38.67;19.82;98564.11;1701670;84;25487;-59